NOZ173 ENBR-ENKB
Flight info
| Callsign | NOZ173 |
|---|---|
| Flight time | N/A |
| Altitude | 29000 |
| Route | OLDAS DCT TUMIM |
| Aircraft | B38M/M-SDE1FGHILORVWXY/HB1 |
Departure
| Time | N/A |
|---|---|
| Airport | Bergen Airport, Flesland (ENBR) |
Arrival
| Time | 2026-05-04 06:52 |
|---|---|
| Airport | Kristiansund Airport, Kvernberget (ENKB) |
| Time | Latitude | Longitude | Altitude | Speed | Heading |
|---|---|---|---|---|---|
| 2026-05-04 06:32 | 61.87548 | 6.20495 | 28799 ft | 523 kts | 37° |
| 2026-05-04 06:33 | 62.06561 | 6.56444 | 28853 ft | 522 kts | 37° |
| 2026-05-04 06:34 | 62.11958 | 6.66765 | 28836 ft | 523 kts | 37° |
| 2026-05-04 06:34 | 62.17328 | 6.77084 | 28487 ft | 519 kts | 38° |
| 2026-05-04 06:35 | 62.20001 | 6.82239 | 27829 ft | 514 kts | 38° |
| 2026-05-04 06:36 | 62.37956 | 7.17592 | 23748 ft | 491 kts | 38° |
| 2026-05-04 06:37 | 62.40451 | 7.22576 | 23056 ft | 489 kts | 38° |
| 2026-05-04 06:37 | 62.42937 | 7.27555 | 22310 ft | 486 kts | 38° |
| 2026-05-04 06:37 | 62.45408 | 7.32515 | 21547 ft | 484 kts | 38° |
| 2026-05-04 06:37 | 62.47865 | 7.37460 | 20758 ft | 482 kts | 38° |
| 2026-05-04 06:38 | 62.50307 | 7.42383 | 20035 ft | 479 kts | 38° |
| 2026-05-04 06:38 | 62.52732 | 7.47288 | 19372 ft | 476 kts | 38° |
| 2026-05-04 06:40 | 62.68427 | 7.79297 | 14600 ft | 401 kts | 39° |
| 2026-05-04 06:40 | 62.70428 | 7.83411 | 14020 ft | 391 kts | 39° |
| 2026-05-04 06:40 | 62.72378 | 7.87425 | 13440 ft | 381 kts | 39° |
| 2026-05-04 06:40 | 62.74341 | 7.91190 | 12780 ft | 369 kts | 30° |
| 2026-05-04 06:41 | 62.76451 | 7.94235 | 12174 ft | 360 kts | 29° |
| 2026-05-04 06:41 | 62.78512 | 7.97298 | 11649 ft | 358 kts | 30° |
| 2026-05-04 06:41 | 62.80556 | 8.00392 | 11164 ft | 358 kts | 31° |
| 2026-05-04 06:41 | 62.82602 | 8.03525 | 10693 ft | 359 kts | 31° |
| 2026-05-04 06:42 | 62.84642 | 8.06677 | 10209 ft | 359 kts | 32° |
| 2026-05-04 06:42 | 62.86679 | 8.09838 | 9727 ft | 358 kts | 32° |
| 2026-05-04 06:42 | 62.88706 | 8.12987 | 9241 ft | 357 kts | 32° |
| 2026-05-04 06:44 | 63.02105 | 8.33863 | 6182 ft | 304 kts | 24° |
| 2026-05-04 06:44 | 63.03994 | 8.35702 | 5711 ft | 292 kts | 15° |
| 2026-05-04 06:44 | 63.05848 | 8.37344 | 5403 ft | 282 kts | 15° |
| 2026-05-04 06:45 | 63.07624 | 8.38940 | 5195 ft | 269 kts | 14° |
| 2026-05-04 06:45 | 63.09379 | 8.39652 | 4909 ft | 245 kts | 344° |
| 2026-05-04 06:45 | 63.10898 | 8.38454 | 4631 ft | 225 kts | 320° |
| 2026-05-04 06:45 | 63.12218 | 8.36706 | 4474 ft | 216 kts | 320° |
| 2026-05-04 06:46 | 63.13470 | 8.35012 | 4397 ft | 208 kts | 319° |
| 2026-05-04 06:46 | 63.14652 | 8.33371 | 4328 ft | 193 kts | 317° |
| 2026-05-04 06:46 | 63.15626 | 8.31581 | 4203 ft | 171 kts | 294° |
| 2026-05-04 06:46 | 63.15957 | 8.29263 | 4165 ft | 155 kts | 266° |
| 2026-05-04 06:48 | 63.14657 | 8.13131 | 3183 ft | 147 kts | 256° |
| 2026-05-04 06:48 | 63.14432 | 8.10942 | 2922 ft | 144 kts | 256° |
| 2026-05-04 06:49 | 63.14208 | 8.08800 | 2668 ft | 142 kts | 255° |
| 2026-05-04 06:50 | 63.12690 | 7.94711 | 1246 ft | 117 kts | 254° |
| 2026-05-04 06:51 | 63.12499 | 7.92973 | 1023 ft | 117 kts | 254° |
| 2026-05-04 06:51 | 63.12296 | 7.91116 | 823 ft | 130 kts | 255° |
| 2026-05-04 06:51 | 63.12124 | 7.89151 | 686 ft | 129 kts | 259° |
| 2026-05-04 06:51 | 63.11928 | 7.87210 | 435 ft | 131 kts | 247° |
| 2026-05-04 06:52 | 63.11616 | 7.85265 | 284 ft | 133 kts | 249° |
| 2026-05-04 06:52 | 63.11351 | 7.83521 | 217 ft | 107 kts | 248° |
| 2026-05-04 06:52 | 63.11173 | 7.82385 | 216 ft | 46 kts | 251° |
| 2026-05-04 06:52 | 63.11125 | 7.82138 | 215 ft | 5 kts | 276° |
| 2026-05-04 06:53 | 63.11144 | 7.82140 | 215 ft | 9 kts | 46° |
| 2026-05-04 06:53 | 63.11178 | 7.82378 | 216 ft | 21 kts | 75° |
| 2026-05-04 06:53 | 63.11228 | 7.82578 | 216 ft | 11 kts | 19° |
| 2026-05-04 06:53 | 63.11299 | 7.82564 | 213 ft | 11 kts | 347° |
| 2026-05-04 06:54 | 63.11326 | 7.82546 | 219 ft | 0 kts | 342° |